createdAt,value
2019-04-29T00:05:03.577Z,92
2019-04-29T00:10:35.063Z,93
2019-04-29T00:15:57.948Z,93
2019-04-29T00:21:25.476Z,93
2019-04-29T00:26:53.686Z,93
2019-04-29T00:32:21.369Z,93
2019-04-29T00:37:49.589Z,94
2019-04-29T00:43:18.453Z,94
2019-04-29T00:48:45.319Z,94
2019-04-29T00:54:12.677Z,94
2019-04-29T00:59:40.608Z,95
2019-04-29T01:05:08.336Z,95
2019-04-29T01:10:36.778Z,95
2019-04-29T01:16:05.172Z,95
2019-04-29T01:21:32.598Z,95
2019-04-29T01:27:01.029Z,95
2019-04-29T01:32:28.402Z,95
2019-04-29T01:37:55.877Z,95
2019-04-29T01:43:24.061Z,96
2019-04-29T01:48:52.580Z,96
2019-04-29T01:54:20.904Z,96
2019-04-29T01:59:48.225Z,96
2019-04-29T02:05:16.626Z,97
2019-04-29T02:10:45.083Z,97
2019-04-29T02:16:13.459Z,97
2019-04-29T02:21:40.939Z,97
2019-04-29T02:27:09.220Z,97
2019-04-29T02:32:36.679Z,97
2019-04-29T02:38:05.053Z,97
2019-04-29T02:43:32.383Z,97
2019-04-29T02:48:59.869Z,97
2019-04-29T02:54:28.144Z,97
2019-04-29T02:59:56.973Z,96
2019-04-29T03:05:23.095Z,96
2019-04-29T03:10:50.750Z,96
2019-04-29T03:16:18.762Z,96
2019-04-29T03:21:47.156Z,96
2019-04-29T03:27:14.618Z,96
2019-04-29T03:32:42.808Z,96
2019-04-29T03:38:10.548Z,96
2019-04-29T03:43:37.558Z,96
2019-04-29T03:49:05.811Z,96
2019-04-29T03:54:34.237Z,96
2019-04-29T04:00:02.837Z,96
2019-04-29T04:05:28.895Z,96
2019-04-29T04:10:57.613Z,95
2019-04-29T04:16:24.617Z,95
2019-04-29T04:21:52.171Z,96
2019-04-29T04:27:19.269Z,96
2019-04-29T04:32:47.733Z,96
2019-04-29T04:38:16.013Z,96
2019-04-29T04:43:44.379Z,95
2019-04-29T04:49:15.653Z,95
2019-04-29T04:54:40.300Z,95
2019-04-29T05:00:07.441Z,95
2019-04-29T05:05:36.080Z,95
2019-04-29T05:11:02.824Z,95
2019-04-29T05:16:30.222Z,96
2019-04-29T05:21:57.463Z,96
2019-04-29T05:27:24.815Z,96
2019-04-29T05:32:52.090Z,95
2019-04-29T05:38:20.471Z,95
2019-04-29T05:43:48.812Z,95
2019-04-29T05:49:16.919Z,95
2019-04-29T05:54:44.867Z,96
2019-04-29T06:00:18.690Z,96
2019-04-29T06:05:39.773Z,96
2019-04-29T06:11:07.229Z,96
2019-04-29T06:16:34.460Z,96
2019-04-29T06:22:03.908Z,97
2019-04-29T06:27:33.379Z,97
2019-04-29T06:32:57.248Z,98
2019-04-29T06:38:30.286Z,98
2019-04-29T06:44:05.836Z,98
2019-04-29T06:49:21.994Z,98
2019-04-29T06:54:48.405Z,99
2019-04-29T07:00:17.476Z,99
2019-04-29T07:05:44.034Z,100
2019-04-29T07:11:11.743Z,100
2019-04-29T07:16:38.730Z,100
2019-04-29T07:22:07.073Z,100
2019-04-29T07:33:01.751Z,100
2019-04-29T07:38:40.458Z,99
2019-04-29T07:43:57.379Z,99
2019-04-29T07:49:26.014Z,99
2019-04-29T07:54:55.953Z,99
2019-04-29T08:00:22.297Z,99
2019-04-29T08:05:49.009Z,99
2019-04-29T08:11:16.510Z,99
2019-04-29T08:16:45.035Z,98
2019-04-29T08:22:16.433Z,98
2019-04-29T08:27:43.681Z,98
2019-04-29T08:33:11.881Z,98
2019-04-29T08:38:36.887Z,98
2019-04-29T08:44:15.604Z,98
2019-04-29T08:49:31.826Z,98
2019-04-29T08:54:59.936Z,97
2019-04-29T09:00:27.370Z,97
2019-04-29T09:06:04.982Z,97
2019-04-29T09:11:23.393Z,97
2019-04-29T09:16:54.168Z,97
2019-04-29T09:22:19.276Z,97
2019-04-29T09:27:46.857Z,97
2019-04-29T09:33:15.413Z,97
2019-04-29T09:38:42.893Z,97
2019-04-29T09:44:11.162Z,96
2019-04-29T09:49:38.068Z,96
2019-04-29T09:55:05.798Z,95
2019-04-29T10:00:36.215Z,93
2019-04-29T10:06:00.934Z,91
2019-04-29T10:11:28.581Z,89
2019-04-29T10:16:56.131Z,88
2019-04-29T10:22:24.992Z,86
2019-04-29T10:27:52.837Z,82
2019-04-29T10:33:23.003Z,84
2019-04-29T10:38:49.056Z,84
2019-04-29T10:44:17.651Z,85
2019-04-29T10:49:49.469Z,84
2019-04-29T10:55:14.184Z,82
2019-04-29T11:00:42.077Z,80
2019-04-29T11:06:09.663Z,82
2019-04-29T11:11:38.461Z,81
2019-04-29T11:17:15.806Z,80
2019-04-29T11:22:38.255Z,79
2019-04-29T11:28:02.654Z,77
2019-04-29T11:33:31.578Z,72
2019-04-29T11:39:08.937Z,69
2019-04-29T11:44:31.736Z,71
2019-04-29T11:49:58.978Z,69
2019-04-29T11:55:26.984Z,69
2019-04-29T12:00:56.020Z,68
2019-04-29T12:06:24.914Z,67
2019-04-29T12:11:53.837Z,66
2019-04-29T12:17:22.598Z,66
2019-04-29T12:22:51.633Z,66
2019-04-29T12:28:20.041Z,64
2019-04-29T12:33:47.462Z,64
2019-04-29T12:39:19.795Z,63
2019-04-29T12:44:45.748Z,64
2019-04-29T12:50:17.409Z,66
2019-04-29T12:55:47.189Z,66
2019-04-29T13:01:11.450Z,65
2019-04-29T13:06:40.694Z,62
2019-04-29T13:12:18.845Z,57
2019-04-29T13:18:03.010Z,59
2019-04-29T13:23:17.264Z,60
2019-04-29T13:28:47.012Z,61
2019-04-29T13:34:22.699Z,60
2019-04-29T13:39:39.564Z,59
2019-04-29T13:45:07.683Z,58
2019-04-29T13:50:38.632Z,57
2019-04-29T13:56:10.746Z,57
2019-04-29T14:01:31.221Z,53
2019-04-29T14:06:56.823Z,54
2019-04-29T14:12:47.581Z,53
2019-04-29T14:17:51.455Z,52
2019-04-29T14:23:20.548Z,52
2019-04-29T14:28:48.554Z,51
2019-04-29T14:34:20.155Z,53
2019-04-29T14:39:44.551Z,52
2019-04-29T14:45:12.562Z,50
2019-04-29T14:50:41.028Z,47
2019-04-29T15:07:07.085Z,46
2019-04-29T15:12:50.789Z,46
2019-04-29T15:23:33.713Z,47
2019-04-29T15:29:05.970Z,43
2019-04-29T15:34:29.763Z,44
2019-04-29T15:39:58.910Z,44
2019-04-29T15:45:31.815Z,41
2019-04-29T15:50:56.861Z,41
2019-04-29T16:01:54.055Z,41
2019-04-29T16:07:22.861Z,41
2019-04-29T16:12:51.192Z,41
2019-04-29T16:18:19.871Z,42
2019-04-29T16:23:48.305Z,42
2019-04-29T16:29:16.784Z,41
2019-04-29T16:34:47.008Z,41
2019-04-29T16:40:13.846Z,42
2019-04-29T16:45:44.047Z,43
2019-04-29T16:57:14.902Z,43
2019-04-29T17:02:19.509Z,43
2019-04-29T17:07:35.504Z,42
2019-04-29T17:13:03.562Z,44
2019-04-29T17:18:35.210Z,44
2019-04-29T17:23:59.181Z,44
2019-04-29T17:29:38.754Z,44
2019-04-29T17:34:59.190Z,46
2019-04-29T17:35:16.452Z,43
2019-04-29T17:51:22.475Z,44
2019-04-29T17:57:03.648Z,44
2019-04-29T18:02:21.895Z,45
2019-04-29T18:13:23.618Z,47
2019-04-29T18:18:48.704Z,47
2019-04-29T18:24:15.208Z,49
2019-04-29T18:29:43.079Z,50
2019-04-29T18:35:09.872Z,49
2019-04-29T18:40:46.826Z,49
2019-04-29T18:51:36.056Z,49
2019-04-29T18:57:05.827Z,50
2019-04-29T19:02:32.166Z,50
2019-04-29T19:08:11.177Z,50
2019-04-29T19:13:30.653Z,51
2019-04-29T19:19:01.388Z,51
2019-04-29T19:24:24.378Z,51
2019-04-29T19:29:52.204Z,51
2019-04-29T19:35:20.790Z,51
2019-04-29T19:40:49.514Z,52
2019-04-29T19:46:23.961Z,54
2019-04-29T19:51:47.266Z,54
2019-04-29T19:57:12.436Z,54
2019-04-29T20:02:44.874Z,54
2019-04-29T20:08:08.268Z,55
2019-04-29T20:13:39.919Z,55
2019-04-29T20:19:11.873Z,56
2019-04-29T20:24:31.009Z,56
2019-04-29T20:30:15.657Z,56
2019-04-29T20:35:28.207Z,57
2019-04-29T20:40:56.648Z,58
2019-04-29T20:46:26.280Z,57
2019-04-29T20:51:52.537Z,57
2019-04-29T20:57:21.786Z,58
2019-04-29T21:02:48.923Z,57
2019-04-29T21:08:19.162Z,58
2019-04-29T21:13:48.350Z,58
2019-04-29T21:19:11.846Z,58
2019-04-29T21:24:39.325Z,58
2019-04-29T21:30:07.735Z,58
2019-04-29T21:35:36.192Z,59
2019-04-29T21:41:03.615Z,60
2019-04-29T21:46:31.216Z,60
2019-04-29T21:51:59.416Z,60
2019-04-29T21:57:26.789Z,60
2019-04-29T22:02:55.448Z,60
2019-04-29T22:08:25.566Z,61
2019-04-29T22:13:49.932Z,61
2019-04-29T22:19:18.468Z,62
2019-04-29T22:24:46.732Z,61
2019-04-29T22:30:15.171Z,62
2019-04-29T22:35:49.530Z,61
2019-04-29T22:41:11.787Z,62
2019-04-29T22:46:39.978Z,62
2019-04-29T22:52:04.302Z,62
2019-04-29T22:57:31.860Z,62
2019-04-29T23:03:02.198Z,62
2019-04-29T23:08:29.689Z,63
2019-04-29T23:13:55.400Z,63
2019-04-29T23:19:21.868Z,63
2019-04-29T23:24:51.212Z,63
2019-04-29T23:30:17.941Z,63
2019-04-29T23:35:44.803Z,63
2019-04-29T23:41:13.179Z,64
2019-04-29T23:46:41.482Z,63
2019-04-29T23:52:18.633Z,64
2019-04-29T23:57:36.932Z,64
